Time;durP1;ratioP1;P1;durP2;ratioP2;P2;SDS_P1;SDS_P2;PMS_P1;PMS_P2;Temp;Humidity;BMP_temperature;BMP_pressure;BME280_temperature;BME280_humidity;BME280_pressure;Samples;Min_cycle;Max_cycle;Signal;HPM_P1;HPM_P2
2022/04/24 00:01:07;;;;;;;19.92;14.48;;;9.90;99.90;;;;;;5015042;28;20360;-69
2022/04/24 00:03:33;;;;;;;16.42;14.57;;;9.90;99.90;;;;;;5015402;28;20041;-69
2022/04/24 00:05:59;;;;;;;18.05;14.20;;;9.90;99.90;;;;;;5014570;28;20131;-68
2022/04/24 00:08:25;;;;;;;15.20;12.98;;;9.90;99.90;;;;;;5015260;28;20470;-67
2022/04/24 00:10:51;;;;;;;15.40;13.80;;;9.90;99.90;;;;;;4997445;28;20049;-67
2022/04/24 00:13:16;;;;;;;15.57;12.25;;;9.80;99.90;;;;;;5015051;28;20053;-67
2022/04/24 00:15:42;;;;;;;18.95;13.50;;;9.80;99.90;;;;;;5014904;28;20085;-69
2022/04/24 00:18:08;;;;;;;17.60;13.10;;;9.80;99.90;;;;;;5015159;28;20049;-67
2022/04/24 00:20:34;;;;;;;19.23;13.13;;;9.80;99.90;;;;;;4996545;28;20042;-67
2022/04/24 00:22:59;;;;;;;14.20;12.00;;;9.80;99.90;;;;;;5014880;28;20041;-67
2022/04/24 00:25:25;;;;;;;19.13;12.15;;;9.70;99.90;;;;;;5014862;28;20462;-66
2022/04/24 00:27:51;;;;;;;15.93;12.13;;;9.70;99.90;;;;;;5014624;28;20068;-67
2022/04/24 00:30:16;;;;;;;14.68;12.00;;;9.70;99.90;;;;;;5014792;28;20038;-68
2022/04/24 00:32:42;;;;;;;13.10;11.65;;;9.70;99.90;;;;;;5014685;28;20137;-69
2022/04/24 00:35:08;;;;;;;13.32;11.45;;;9.60;99.90;;;;;;5014699;28;20064;-68
2022/04/24 00:37:34;;;;;;;13.38;11.88;;;9.60;99.90;;;;;;5014706;28;20410;-70
2022/04/24 00:39:59;;;;;;;15.40;11.70;;;9.60;99.90;;;;;;5015103;28;20046;-67
2022/04/24 00:42:25;;;;;;;15.23;11.93;;;9.60;99.90;;;;;;5009546;28;20483;-68
2022/04/24 00:44:51;;;;;;;15.30;11.07;;;9.60;99.90;;;;;;4994693;28;20108;-68
2022/04/24 00:47:18;;;;;;;12.38;11.00;;;9.50;99.90;;;;;;4995190;28;20061;-69
2022/04/24 00:49:45;;;;;;;12.60;11.10;;;9.50;99.90;;;;;;4995045;28;20049;-68
2022/04/24 00:52:11;;;;;;;15.32;11.23;;;9.50;99.90;;;;;;4994512;28;20062;-67
2022/04/24 00:54:38;;;;;;;13.63;10.90;;;9.50;99.90;;;;;;4994998;28;20054;-68
2022/04/24 00:57:08;;;;;;;13.52;11.23;;;9.40;99.90;;;;;;4994823;28;20122;-68
2022/04/24 00:59:33;;;;;;;14.63;10.73;;;9.40;99.90;;;;;;4994960;28;20050;-69
2022/04/24 01:02:02;;;;;;;14.85;12.10;;;9.40;99.90;;;;;;4995010;28;20042;-68
2022/04/24 01:04:27;;;;;;;12.02;10.60;;;9.40;99.90;;;;;;4994734;28;20050;-69
2022/04/24 01:06:53;;;;;;;12.55;10.73;;;9.30;99.90;;;;;;4994777;28;20050;-67
2022/04/24 01:09:21;;;;;;;11.82;10.52;;;9.30;99.90;;;;;;4998195;28;20061;-66
2022/04/24 01:11:50;;;;;;;13.82;11.82;;;9.30;99.90;;;;;;4981430;28;20467;-69
2022/04/24 01:14:16;;;;;;;11.57;10.40;;;9.20;99.90;;;;;;4999188;28;20367;-67
2022/04/24 01:16:44;;;;;;;12.68;11.25;;;9.20;99.90;;;;;;5017867;28;20125;-66
2022/04/24 01:19:09;;;;;;;11.55;10.27;;;9.20;99.90;;;;;;5017707;28;20061;-70
2022/04/24 01:21:35;;;;;;;12.18;10.73;;;9.20;99.90;;;;;;5017733;28;20038;-66
2022/04/24 01:24:06;;;;;;;12.32;11.10;;;9.10;99.90;;;;;;5017993;28;20064;-67
2022/04/24 01:26:32;;;;;;;14.80;10.20;;;9.10;99.90;;;;;;5017693;28;20042;-70
2022/04/24 01:28:57;;;;;;;13.80;10.50;;;9.10;99.90;;;;;;5017413;28;20052;-67
2022/04/24 01:31:23;;;;;;;12.93;10.70;;;9.10;99.90;;;;;;5017513;28;20133;-68
2022/04/24 01:33:48;;;;;;;14.60;10.45;;;9.10;99.90;;;;;;5017768;28;20136;-66
2022/04/24 01:36:14;;;;;;;13.23;11.40;;;9.00;99.90;;;;;;5017383;28;20092;-69
2022/04/24 01:38:40;;;;;;;13.02;11.07;;;9.00;99.90;;;;;;5000087;28;20085;-67
2022/04/24 01:41:06;;;;;;;13.82;11.52;;;9.00;99.90;;;;;;5017485;28;20153;-69
2022/04/24 01:43:32;;;;;;;12.70;11.02;;;8.90;99.90;;;;;;4999722;28;20463;-66
2022/04/24 01:45:57;;;;;;;11.98;10.60;;;9.00;99.90;;;;;;5017024;28;20375;-67
2022/04/24 01:48:23;;;;;;;13.02;10.98;;;8.90;99.90;;;;;;5017076;28;20128;-67
2022/04/24 01:50:52;;;;;;;12.80;10.77;;;8.90;99.90;;;;;;5017082;28;20054;-69
2022/04/24 01:53:18;;;;;;;11.90;10.52;;;8.90;99.90;;;;;;5017120;28;20045;-65
2022/04/24 01:55:43;;;;;;;13.82;10.93;;;8.90;99.90;;;;;;5016738;28;20057;-67
2022/04/24 01:58:09;;;;;;;14.30;10.52;;;8.90;99.90;;;;;;5017202;28;20061;-66
2022/04/24 02:00:34;;;;;;;13.40;10.40;;;8.80;99.90;;;;;;5014962;28;20050;-69
2022/04/24 02:03:00;;;;;;;12.50;10.60;;;8.80;99.90;;;;;;5016945;28;20448;-69
2022/04/24 02:05:26;;;;;;;12.98;10.85;;;8.80;99.90;;;;;;5016247;28;20456;-68
2022/04/24 02:07:51;;;;;;;13.13;11.32;;;8.70;99.90;;;;;;5015774;28;20064;-67
2022/04/24 02:10:17;;;;;;;14.48;10.85;;;8.70;99.90;;;;;;5014817;28;20033;-69
2022/04/24 02:12:44;;;;;;;14.55;11.55;;;8.70;99.90;;;;;;5016770;28;20372;-67
2022/04/24 02:15:11;;;;;;;13.82;11.23;;;8.60;99.90;;;;;;5016720;28;20050;-67
2022/04/24 02:17:36;;;;;;;14.00;11.48;;;8.60;99.90;;;;;;5016658;28;20068;-68
2022/04/24 02:20:03;;;;;;;13.82;11.15;;;8.60;99.90;;;;;;4998236;28;20046;-68
2022/04/24 02:22:34;;;;;;;13.57;11.50;;;8.60;99.90;;;;;;4999689;28;20057;-67
2022/04/24 02:25:01;;;;;;;14.10;11.68;;;8.50;99.90;;;;;;5001898;28;20053;-67
2022/04/24 02:27:27;;;;;;;14.23;12.75;;;8.50;99.90;;;;;;4997082;28;20058;-66
2022/04/24 02:29:53;;;;;;;16.92;12.18;;;8.50;99.90;;;;;;4996647;28;20050;-68
2022/04/24 02:32:18;;;;;;;13.65;12.23;;;8.50;99.90;;;;;;4996857;28;20042;-66
2022/04/24 02:34:44;;;;;;;16.50;12.07;;;8.40;99.90;;;;;;4996856;28;20405;-67
2022/04/24 02:37:10;;;;;;;14.13;12.57;;;8.40;99.90;;;;;;4979913;28;20065;-67
2022/04/24 02:39:38;;;;;;;15.50;12.13;;;8.40;99.90;;;;;;5009129;28;20042;-69
2022/04/24 02:42:04;;;;;;;13.85;11.85;;;8.50;99.90;;;;;;5016332;28;20145;-67
2022/04/24 02:44:29;;;;;;;13.25;11.85;;;8.40;99.90;;;;;;5015553;28;20491;-66
2022/04/24 02:46:55;;;;;;;15.05;11.98;;;8.40;99.90;;;;;;5015247;28;20084;-66
2022/04/24 02:49:21;;;;;;;15.30;12.57;;;8.40;99.90;;;;;;4998838;28;20053;-67
2022/04/24 02:51:46;;;;;;;15.73;12.80;;;8.40;99.90;;;;;;5016003;28;20411;-68
2022/04/24 02:54:12;;;;;;;16.00;12.60;;;8.40;99.90;;;;;;5003041;28;20073;-67
2022/04/24 02:56:38;;;;;;;13.15;11.27;;;8.30;99.90;;;;;;4996638;28;20050;-68
2022/04/24 02:59:04;;;;;;;14.07;12.60;;;8.40;99.90;;;;;;4979032;28;20042;-67
2022/04/24 03:01:33;;;;;;;18.50;11.40;;;8.40;99.90;;;;;;4996573;28;20317;-69
2022/04/24 03:03:59;;;;;;;16.83;11.88;;;8.40;99.90;;;;;;4996302;28;20104;-67
2022/04/24 03:06:25;;;;;;;14.57;11.65;;;8.40;99.90;;;;;;4996103;28;20046;-67
2022/04/24 03:08:50;;;;;;;13.63;12.00;;;8.40;99.90;;;;;;5015352;28;20064;-67
2022/04/24 03:11:16;;;;;;;13.60;11.32;;;8.40;99.90;;;;;;5015799;28;20364;-68
2022/04/24 03:13:42;;;;;;;14.23;11.43;;;8.40;99.90;;;;;;5015452;28;20080;-67
2022/04/24 03:16:08;;;;;;;13.77;11.35;;;8.40;99.90;;;;;;5015097;28;20061;-69
2022/04/24 03:18:33;;;;;;;13.63;11.60;;;8.30;99.90;;;;;;5015724;28;20041;-66
2022/04/24 03:20:59;;;;;;;14.60;12.35;;;8.40;99.90;;;;;;4998127;28;20064;-68
2022/04/24 03:23:24;;;;;;;13.77;11.95;;;8.40;99.90;;;;;;4997250;28;20057;-69
2022/04/24 03:25:50;;;;;;;15.68;12.52;;;8.30;99.90;;;;;;4995883;28;20478;-67
2022/04/24 03:28:17;;;;;;;13.43;11.80;;;8.40;99.90;;;;;;4978588;28;20050;-68
2022/04/24 03:30:43;;;;;;;13.77;11.98;;;8.40;99.90;;;;;;4995576;28;20128;-66
2022/04/24 03:33:09;;;;;;;14.13;12.63;;;8.40;99.90;;;;;;4993021;28;20049;-66
2022/04/24 03:35:34;;;;;;;16.58;12.43;;;8.40;99.90;;;;;;4995868;28;20054;-67
2022/04/24 03:38:01;;;;;;;18.40;12.57;;;8.40;99.90;;;;;;4994391;28;20486;-67
2022/04/24 03:40:26;;;;;;;16.45;11.93;;;8.40;99.90;;;;;;5015404;28;20359;-68
2022/04/24 03:42:52;;;;;;;15.05;11.30;;;8.40;99.90;;;;;;5014948;28;20046;-68
2022/04/24 03:45:18;;;;;;;15.00;10.70;;;8.40;99.90;;;;;;5015302;28;20045;-68
2022/04/24 03:47:44;;;;;;;14.93;11.90;;;8.40;99.90;;;;;;5015215;28;20066;-66
2022/04/24 03:50:10;;;;;;;19.30;12.20;;;8.40;99.90;;;;;;5015351;28;20100;-67
2022/04/24 03:52:35;;;;;;;12.50;11.07;;;8.40;99.90;;;;;;4999564;28;20062;-68
2022/04/24 03:55:02;;;;;;;15.43;12.05;;;8.40;99.90;;;;;;4995744;28;20058;-67
2022/04/24 03:57:27;;;;;;;20.48;12.05;;;8.40;99.90;;;;;;4994856;28;20046;-65
2022/04/24 03:59:53;;;;;;;14.18;11.77;;;8.40;99.90;;;;;;4995317;28;20084;-67
2022/04/24 04:02:18;;;;;;;14.35;10.70;;;8.40;99.90;;;;;;4995468;28;20061;-68
2022/04/24 04:04:44;;;;;;;14.73;11.65;;;8.50;99.90;;;;;;4995413;28;20060;-70
2022/04/24 04:07:09;;;;;;;18.20;11.18;;;8.50;99.90;;;;;;4995429;28;20054;-67
2022/04/24 04:09:35;;;;;;;16.40;11.82;;;8.50;99.90;;;;;;4996466;28;20403;-66
2022/04/24 04:12:01;;;;;;;15.23;11.45;;;8.50;99.90;;;;;;4995052;28;20073;-65
2022/04/24 04:14:26;;;;;;;15.35;11.10;;;8.50;99.90;;;;;;4995375;28;20157;-67
2022/04/24 04:16:52;;;;;;;14.65;11.82;;;8.50;99.90;;;;;;4978310;28;20441;-67
2022/04/24 04:19:18;;;;;;;17.55;11.15;;;8.50;99.90;;;;;;4995292;28;20108;-66
2022/04/24 04:21:44;;;;;;;13.73;10.73;;;8.50;99.90;;;;;;5007146;28;20049;-67
2022/04/24 04:24:11;;;;;;;13.13;10.80;;;8.50;99.90;;;;;;5015064;28;20046;-67
2022/04/24 04:26:36;;;;;;;15.98;11.25;;;8.40;99.90;;;;;;4997302;28;20471;-67
2022/04/24 04:29:03;;;;;;;13.68;10.23;;;8.40;99.90;;;;;;5013907;28;20046;-67
2022/04/24 04:31:28;;;;;;;12.93;10.68;;;8.40;99.90;;;;;;4997747;28;20057;-66
2022/04/24 04:33:54;;;;;;;12.60;10.05;;;8.40;99.90;;;;;;5014853;28;20056;-66
2022/04/24 04:36:20;;;;;;;13.30;9.57;;;8.50;99.90;;;;;;5003696;28;20476;-67
2022/04/24 04:38:45;;;;;;;13.20;10.68;;;8.40;99.90;;;;;;4995133;28;20133;-66
2022/04/24 04:41:11;;;;;;;12.50;9.70;;;8.40;99.90;;;;;;4994898;28;20452;-67
2022/04/24 04:43:37;;;;;;;15.00;9.45;;;8.40;99.90;;;;;;4997375;28;20133;-67
2022/04/24 04:46:02;;;;;;;13.35;10.55;;;8.50;99.90;;;;;;4998850;28;20053;-68
2022/04/24 04:48:28;;;;;;;13.55;10.15;;;8.40;99.90;;;;;;4998980;28;20050;-65
2022/04/24 04:50:55;;;;;;;11.13;9.43;;;8.50;99.90;;;;;;5007577;28;20061;-67
2022/04/24 04:53:22;;;;;;;13.90;9.82;;;8.50;99.90;;;;;;5018744;28;20143;-67
2022/04/24 04:55:47;;;;;;;16.48;10.68;;;8.50;99.90;;;;;;5018233;28;20099;-66
2022/04/24 04:58:13;;;;;;;17.00;10.00;;;8.50;99.90;;;;;;5017577;28;20132;-66
2022/04/24 05:00:39;;;;;;;14.70;10.05;;;8.60;99.90;;;;;;5017841;28;20568;-69
2022/04/24 05:03:04;;;;;;;13.75;10.38;;;8.50;99.90;;;;;;5018332;28;20367;-68
2022/04/24 05:05:30;;;;;;;13.07;9.70;;;8.60;99.90;;;;;;5018247;28;20050;-66
2022/04/24 05:07:56;;;;;;;12.65;9.90;;;8.60;99.90;;;;;;5017996;28;20050;-66
2022/04/24 05:10:22;;;;;;;15.88;10.07;;;8.60;99.90;;;;;;5018098;28;20333;-67
2022/04/24 05:12:47;;;;;;;15.82;10.25;;;8.60;99.90;;;;;;5017973;28;20440;-67
2022/04/24 05:15:14;;;;;;;13.73;10.27;;;8.60;99.90;;;;;;5017368;28;20065;-67
2022/04/24 05:17:41;;;;;;;14.27;10.30;;;8.60;99.90;;;;;;5017581;28;20455;-66
2022/04/24 05:20:10;;;;;;;12.70;10.35;;;8.70;99.90;;;;;;5017857;28;20046;-67
2022/04/24 05:22:36;;;;;;;11.73;10.52;;;8.60;99.90;;;;;;5017893;28;20038;-65
2022/04/24 05:25:03;;;;;;;13.50;10.55;;;8.60;99.90;;;;;;5017390;28;20050;-67
2022/04/24 05:27:29;;;;;;;15.82;10.57;;;8.70;99.90;;;;;;5017784;28;20054;-67
2022/04/24 05:29:55;;;;;;;12.13;10.13;;;8.70;99.90;;;;;;5017509;28;20041;-68
2022/04/24 05:32:21;;;;;;;13.73;11.27;;;8.70;99.90;;;;;;5017675;28;20099;-69
2022/04/24 05:34:46;;;;;;;13.95;10.65;;;8.70;99.90;;;;;;5017754;28;20129;-70
2022/04/24 05:37:12;;;;;;;12.77;10.35;;;8.70;99.90;;;;;;5017684;28;20497;-68
2022/04/24 05:39:38;;;;;;;14.23;10.65;;;8.70;99.90;;;;;;5017535;28;20057;-67
2022/04/24 05:42:04;;;;;;;12.55;10.38;;;8.80;99.90;;;;;;5017427;28;20046;-66
2022/04/24 05:44:29;;;;;;;14.20;10.23;;;8.80;99.90;;;;;;5015576;28;20515;-68
2022/04/24 05:46:55;;;;;;;15.82;10.48;;;8.90;99.90;;;;;;4997725;28;20038;-66
2022/04/24 05:49:21;;;;;;;15.13;10.38;;;8.90;99.90;;;;;;5005048;28;20048;-68
2022/04/24 05:51:47;;;;;;;13.98;11.00;;;8.90;99.90;;;;;;5017268;28;20065;-67
2022/04/24 05:54:13;;;;;;;16.92;10.63;;;9.00;99.90;;;;;;5017060;28;20054;-67
2022/04/24 05:56:38;;;;;;;12.27;10.18;;;9.00;99.90;;;;;;5015955;28;20046;-68
2022/04/24 05:59:05;;;;;;;12.93;10.40;;;9.00;99.90;;;;;;5016444;28;20054;-67
2022/04/24 06:01:30;;;;;;;11.88;10.02;;;9.10;99.90;;;;;;5015874;28;20116;-68
2022/04/24 06:03:56;;;;;;;14.73;10.52;;;9.10;99.90;;;;;;5016999;28;20046;-68
2022/04/24 06:06:22;;;;;;;19.83;10.63;;;9.20;99.90;;;;;;5017129;28;20054;-68
2022/04/24 06:08:47;;;;;;;16.50;10.35;;;9.30;99.90;;;;;;5016666;28;20111;-66
2022/04/24 06:11:13;;;;;;;12.40;9.43;;;9.30;99.90;;;;;;5016864;28;20069;-69
2022/04/24 06:13:41;;;;;;;14.50;10.55;;;9.40;99.90;;;;;;5000069;28;20380;-67
2022/04/24 06:16:07;;;;;;;15.13;10.15;;;9.40;99.90;;;;;;5016176;28;20508;-67
2022/04/24 06:18:32;;;;;;;13.60;9.95;;;9.40;99.90;;;;;;5017028;28;20128;-66
2022/04/24 06:20:58;;;;;;;14.02;10.10;;;9.50;99.90;;;;;;5016779;28;20046;-67
2022/04/24 06:23:28;;;;;;;14.77;9.63;;;9.50;99.90;;;;;;5016658;28;20111;-65
2022/04/24 06:25:54;;;;;;;12.30;10.27;;;9.50;99.90;;;;;;5016414;28;20041;-67
2022/04/24 06:28:20;;;;;;;13.00;9.77;;;9.60;99.90;;;;;;5016614;28;20046;-66
2022/04/24 06:30:47;;;;;;;13.82;9.48;;;9.70;99.90;;;;;;5016342;28;20053;-66
2022/04/24 06:33:14;;;;;;;12.95;9.65;;;9.70;99.90;;;;;;5016525;28;20062;-68
2022/04/24 06:35:40;;;;;;;13.45;9.50;;;9.80;99.90;;;;;;5016037;28;20490;-68
2022/04/24 06:38:06;;;;;;;11.50;8.40;;;9.80;99.90;;;;;;5016337;28;20050;-66
2022/04/24 06:40:32;;;;;;;10.95;7.53;;;9.90;99.90;;;;;;5016361;28;20489;-67
2022/04/24 06:43:06;;;;;;;16.83;8.20;;;10.00;99.90;;;;;;5016171;28;20042;-65
2022/04/24 06:45:40;;;;;;;8.83;7.23;;;10.10;99.90;;;;;;5015903;28;20074;-66
2022/04/24 06:48:11;;;;;;;10.73;7.20;;;10.20;99.90;;;;;;5015942;28;20045;-67
2022/04/24 06:50:41;;;;;;;9.95;7.63;;;10.30;99.90;;;;;;5015974;28;20363;-67
2022/04/24 06:53:09;;;;;;;10.75;7.13;;;10.30;99.90;;;;;;5016159;28;20045;-66
2022/04/24 06:55:40;;;;;;;11.88;7.30;;;10.40;99.90;;;;;;5016364;28;20363;-66
2022/04/24 06:58:07;;;;;;;8.65;6.13;;;10.40;99.90;;;;;;5016108;28;20041;-66
2022/04/24 07:00:36;;;;;;;9.10;6.30;;;10.50;99.90;;;;;;5015764;28;20045;-68
2022/04/24 07:03:09;;;;;;;8.02;6.55;;;10.60;99.90;;;;;;5015914;28;20050;-67
2022/04/24 07:05:35;;;;;;;6.70;5.68;;;10.70;99.90;;;;;;5015565;28;20349;-70
2022/04/24 07:08:00;;;;;;;8.88;5.68;;;10.70;99.90;;;;;;5015775;28;20053;-67
2022/04/24 07:10:26;;;;;;;11.60;6.20;;;10.80;99.90;;;;;;5016156;28;20045;-68
2022/04/24 07:12:53;;;;;;;7.75;5.63;;;10.90;99.90;;;;;;5015711;28;20374;-68
2022/04/24 07:15:21;;;;;;;8.63;6.03;;;10.90;99.90;;;;;;5012496;28;20046;-67
2022/04/24 07:17:49;;;;;;;10.55;4.90;;;11.10;99.90;;;;;;5015690;28;20152;-68
2022/04/24 07:20:17;;;;;;;10.43;5.38;;;11.10;99.90;;;;;;4982228;28;20046;-69
2022/04/24 07:22:53;;;;;;;9.13;4.78;;;11.20;99.90;;;;;;5015620;28;20050;-67
2022/04/24 07:25:21;;;;;;;7.13;5.20;;;11.30;99.90;;;;;;5015520;28;20128;-69
2022/04/24 07:27:46;;;;;;;6.35;4.40;;;11.30;99.90;;;;;;5015485;28;20046;-69
2022/04/24 07:30:13;;;;;;;8.32;4.70;;;11.40;99.90;;;;;;5015266;28;20454;-69
2022/04/24 07:32:44;;;;;;;6.88;4.55;;;11.40;99.90;;;;;;5015504;28;20110;-67
2022/04/24 07:35:12;;;;;;;9.60;5.63;;;11.50;99.90;;;;;;4998284;28;20061;-66
2022/04/24 07:37:38;;;;;;;8.02;3.78;;;11.60;99.90;;;;;;5015400;28;20085;-68
2022/04/24 07:40:09;;;;;;;7.68;4.00;;;11.60;99.90;;;;;;5015319;28;20131;-67
2022/04/24 07:42:48;;;;;;;5.30;3.60;;;11.70;99.90;;;;;;5015170;28;20046;-66
2022/04/24 07:45:34;;;;;;;7.35;4.57;;;11.80;99.90;;;;;;5014765;28;20092;-67
2022/04/24 07:48:01;;;;;;;6.93;4.20;;;11.90;99.90;;;;;;5014583;28;20136;-66
2022/04/24 07:50:29;;;;;;;6.90;4.20;;;11.90;99.90;;;;;;5015385;28;20360;-67
2022/04/24 07:52:55;;;;;;;7.78;4.10;;;12.00;99.90;;;;;;5014691;28;20050;-67
2022/04/24 07:55:23;;;;;;;5.55;3.38;;;12.10;99.90;;;;;;5014963;28;20046;-66
2022/04/24 07:57:50;;;;;;;4.93;3.55;;;12.20;99.90;;;;;;5015227;28;20128;-67
2022/04/24 08:00:23;;;;;;;5.10;3.63;;;12.30;99.90;;;;;;5014650;28;20049;-66
2022/04/24 08:02:57;;;;;;;4.35;3.13;;;12.40;99.90;;;;;;5015216;28;20049;-69
2022/04/24 08:05:33;;;;;;;6.10;3.20;;;12.50;99.90;;;;;;5015037;28;20046;-70
2022/04/24 08:08:04;;;;;;;5.55;3.30;;;12.50;99.90;;;;;;5014837;28;20410;-68
2022/04/24 08:10:32;;;;;;;7.00;3.25;;;12.70;99.90;;;;;;5015232;28;20054;-67
2022/04/24 08:12:59;;;;;;;6.05;3.45;;;12.70;99.90;;;;;;5010175;28;20102;-68
2022/04/24 08:15:25;;;;;;;6.90;3.67;;;12.80;99.90;;;;;;4995076;28;20538;-67
2022/04/24 08:17:51;;;;;;;6.78;3.53;;;12.90;99.90;;;;;;4996251;28;20057;-67
2022/04/24 08:20:17;;;;;;;6.15;3.40;;;12.90;99.90;;;;;;4998990;28;20404;-67
2022/04/24 08:22:48;;;;;;;6.18;3.72;;;13.00;99.90;;;;;;4999514;28;20039;-68
2022/04/24 08:25:20;;;;;;;7.50;3.92;;;12.90;99.90;;;;;;4999194;28;20125;-69
2022/04/24 08:27:49;;;;;;;7.60;3.65;;;13.00;99.90;;;;;;5004170;28;20038;-70
2022/04/24 08:30:16;;;;;;;6.88;3.38;;;12.90;99.90;;;;;;5017676;28;20053;-66
2022/04/24 08:32:43;;;;;;;7.35;4.30;;;13.00;99.90;;;;;;5017661;28;20042;-68
2022/04/24 08:35:11;;;;;;;6.88;4.47;;;13.00;99.90;;;;;;5018543;28;20056;-66
2022/04/24 08:37:37;;;;;;;6.95;4.00;;;12.90;99.90;;;;;;5018366;28;20475;-69
2022/04/24 08:40:07;;;;;;;8.82;3.85;;;12.90;99.90;;;;;;5018747;28;20053;-68
2022/04/24 08:42:33;;;;;;;6.93;3.85;;;13.00;99.90;;;;;;5015661;28;20057;-67
2022/04/24 08:45:00;;;;;;;5.68;3.60;;;13.00;99.90;;;;;;5000109;28;20452;-67
2022/04/24 08:47:26;;;;;;;6.72;3.38;;;13.00;99.90;;;;;;4998611;28;20050;-67
2022/04/24 08:50:00;;;;;;;8.50;3.83;;;13.10;99.90;;;;;;4995764;28;20549;-66
2022/04/24 08:52:27;;;;;;;4.23;3.10;;;13.10;99.90;;;;;;4999001;28;20058;-68
2022/04/24 08:54:54;;;;;;;5.95;3.50;;;13.10;99.90;;;;;;4981895;28;20074;-68
2022/04/24 08:57:26;;;;;;;9.05;3.65;;;13.10;99.90;;;;;;4981125;28;20050;-69
2022/04/24 08:59:54;;;;;;;5.97;4.05;;;13.10;99.90;;;;;;4982647;28;20371;-66
2022/04/24 09:02:20;;;;;;;5.72;3.90;;;13.10;99.90;;;;;;5000798;28;20440;-66
2022/04/24 09:04:46;;;;;;;7.13;4.18;;;13.10;99.90;;;;;;5018109;28;20060;-68
2022/04/24 09:07:17;;;;;;;6.07;4.10;;;13.10;99.90;;;;;;5018019;28;20056;-67
2022/04/24 09:09:45;;;;;;;8.10;4.07;;;13.10;99.90;;;;;;5017899;28;20077;-68
2022/04/24 09:12:25;;;;;;;11.70;4.63;;;13.20;99.90;;;;;;5017843;28;20072;-69
2022/04/24 09:14:52;;;;;;;13.15;5.63;;;13.10;99.90;;;;;;5017786;28;20073;-70
2022/04/24 09:17:19;;;;;;;9.15;5.40;;;13.10;99.90;;;;;;5017862;28;20092;-66
2022/04/24 09:19:45;;;;;;;10.80;5.10;;;13.10;99.90;;;;;;5017822;28;20053;-69
2022/04/24 09:22:11;;;;;;;7.95;5.03;;;13.00;99.90;;;;;;5017857;28;20042;-66
2022/04/24 09:24:42;;;;;;;10.45;5.25;;;13.00;99.90;;;;;;5015742;28;20050;-67
2022/04/24 09:27:10;;;;;;;8.63;5.13;;;12.90;99.90;;;;;;4998085;28;20116;-70
2022/04/24 09:29:40;;;;;;;9.52;6.15;;;12.90;99.90;;;;;;4997440;28;20046;-69
2022/04/24 09:32:12;;;;;;;11.27;5.40;;;12.90;99.90;;;;;;4997940;28;20042;-66
2022/04/24 09:34:39;;;;;;;8.52;5.00;;;13.00;99.90;;;;;;4981022;28;20050;-67
2022/04/24 09:37:08;;;;;;;8.60;4.35;;;12.80;99.90;;;;;;4997845;28;20042;-67
2022/04/24 09:39:35;;;;;;;8.02;4.32;;;12.80;99.90;;;;;;4997529;28;20047;-67
2022/04/24 09:42:09;;;;;;;8.65;4.95;;;12.90;99.90;;;;;;4981187;28;20097;-67
2022/04/24 09:44:37;;;;;;;7.57;4.85;;;12.90;99.90;;;;;;4997880;28;20061;-66
2022/04/24 09:47:04;;;;;;;8.25;4.30;;;12.90;99.90;;;;;;4997639;28;20038;-67
2022/04/24 09:49:35;;;;;;;9.48;4.35;;;12.90;99.90;;;;;;4997723;28;20061;-66
2022/04/24 09:52:02;;;;;;;8.55;4.40;;;12.90;99.90;;;;;;4980201;28;20076;-67
2022/04/24 09:54:28;;;;;;;9.57;4.60;;;13.00;99.90;;;;;;5001968;28;20050;-69
2022/04/24 09:56:55;;;;;;;10.40;4.00;;;12.90;99.90;;;;;;5017185;28;20050;-66
2022/04/24 09:59:20;;;;;;;11.00;5.13;;;13.00;99.90;;;;;;5017111;28;20104;-66
2022/04/24 10:01:46;;;;;;;8.90;4.57;;;13.10;99.90;;;;;;4997957;28;20472;-68
2022/04/24 10:04:12;;;;;;;6.00;3.78;;;13.20;99.90;;;;;;5016914;28;20056;-69
2022/04/24 10:06:40;;;;;;;7.13;4.75;;;13.20;99.90;;;;;;4999660;28;20156;-68
2022/04/24 10:09:09;;;;;;;10.35;4.30;;;13.20;99.90;;;;;;5016776;28;20064;-67
2022/04/24 10:11:35;;;;;;;10.88;4.43;;;13.30;99.90;;;;;;4999505;28;20463;-66
2022/04/24 10:14:07;;;;;;;8.60;3.88;;;13.20;99.90;;;;;;5016812;28;20092;-68
2022/04/24 10:17:02;;;;;;;11.48;4.30;;;13.10;99.90;;;;;;4999469;28;20356;-68
2022/04/24 10:19:37;;;;;;;;;;;13.20;99.90;;;;;;5016899;28;20057;-66
2022/04/24 10:22:21;;;;;;;8.23;4.20;;;13.20;99.90;;;;;;4999027;28;19931;-70
2022/04/24 10:24:47;;;;;;;8.33;3.93;;;13.20;99.90;;;;;;5016496;28;20281;-67
2022/04/24 10:27:13;;;;;;;13.23;4.47;;;13.20;99.90;;;;;;5016557;28;20049;-66
2022/04/24 10:29:49;;;;;;;13.77;4.60;;;13.10;99.90;;;;;;5016670;28;20111;-70
2022/04/24 10:32:25;;;;;;;10.48;4.90;;;13.20;99.90;;;;;;5013295;28;20054;-69
2022/04/24 10:34:51;;;;;;;9.55;4.60;;;13.30;99.90;;;;;;5016372;28;20037;-67
2022/04/24 10:37:28;;;;;;;14.52;5.10;;;13.30;99.90;;;;;;5016619;28;20082;-67
2022/04/24 10:39:57;;;;;;;13.85;6.28;;;13.30;99.90;;;;;;5015621;28;20370;-67
2022/04/24 10:42:30;;;;;;;10.13;4.65;;;13.30;99.90;;;;;;4999051;28;20045;-66
2022/04/24 10:45:12;;;;;;;8.95;5.15;;;13.30;99.90;;;;;;4994887;28;20496;-70
2022/04/24 10:47:50;;;;;;;17.52;4.90;;;13.30;99.90;;;;;;4996644;28;20050;-66
2022/04/24 10:50:20;;;;;;;11.13;5.40;;;13.50;99.90;;;;;;4996251;28;20468;-66
2022/04/24 10:52:48;;;;;;;9.75;4.50;;;13.50;99.90;;;;;;4996366;28;20100;-67
2022/04/24 10:55:16;;;;;;;13.82;4.93;;;13.60;99.90;;;;;;4996435;28;20503;-68
2022/04/24 10:57:44;;;;;;;12.93;4.72;;;13.60;99.90;;;;;;4996434;28;20042;-66
2022/04/24 11:00:16;;;;;;;7.90;4.63;;;13.60;99.90;;;;;;5004053;28;20095;-68
2022/04/24 11:02:42;;;;;;;12.10;4.28;;;13.60;99.90;;;;;;5015864;28;20049;-68
2022/04/24 11:05:09;;;;;;;7.35;4.45;;;13.60;99.90;;;;;;5015959;28;20073;-67
2022/04/24 11:07:35;;;;;;;8.77;4.30;;;13.70;99.90;;;;;;5015583;28;20053;-68
2022/04/24 11:10:11;;;;;;;11.00;5.07;;;13.70;99.90;;;;;;5015817;28;20435;-69
2022/04/24 11:12:38;;;;;;;10.38;5.15;;;13.70;99.90;;;;;;5015384;28;20046;-66
2022/04/24 11:15:06;;;;;;;9.77;4.82;;;13.70;99.90;;;;;;5015817;28;20125;-68
2022/04/24 11:17:32;;;;;;;11.23;5.97;;;13.70;99.90;;;;;;5012278;28;20123;-67
2022/04/24 11:20:09;;;;;;;11.13;5.57;;;13.70;99.90;;;;;;5015695;28;20448;-67
2022/04/24 11:22:45;;;;;;;12.48;5.20;;;13.70;99.90;;;;;;5015627;28;20045;-68
2022/04/24 11:25:14;;;;;;;11.93;5.93;;;13.70;99.90;;;;;;5015615;28;20447;-66
2022/04/24 11:27:41;;;;;;;8.77;4.90;;;13.70;99.90;;;;;;5015565;28;20096;-68
2022/04/24 11:30:21;;;;;;;9.13;5.15;;;13.70;99.90;;;;;;5015396;28;20050;-68
2022/04/24 11:33:06;;;;;;;9.48;4.93;;;13.60;99.90;;;;;;5015304;28;20042;-67
2022/04/24 11:35:36;;;;;;;12.30;5.57;;;13.60;99.90;;;;;;5015366;28;20038;-66
2022/04/24 11:38:02;;;;;;;10.38;5.32;;;13.60;99.90;;;;;;5015341;28;20061;-66
2022/04/24 11:40:28;;;;;;;11.88;5.63;;;13.60;99.90;;;;;;5015166;28;20345;-67
2022/04/24 11:43:07;;;;;;;11.52;5.90;;;13.60;99.90;;;;;;4988824;28;20377;-69
2022/04/24 11:51:12;;;;;;;15.05;6.45;;;13.70;99.90;;;;;;5014397;28;20061;-67
2022/04/24 11:53:38;;;;;;;14.45;6.55;;;13.70;99.90;;;;;;5014986;28;20054;-66
2022/04/24 11:56:04;;;;;;;10.52;6.00;;;13.80;99.90;;;;;;5015374;28;20133;-67
2022/04/24 11:58:38;;;;;;;15.73;6.45;;;13.80;99.90;;;;;;4999442;28;20042;-70
2022/04/24 12:01:07;;;;;;;11.13;7.55;;;14.00;99.90;;;;;;4978045;28;20042;-66
2022/04/24 12:03:35;;;;;;;13.35;7.68;;;14.00;99.90;;;;;;4995520;28;20456;-67
2022/04/24 12:06:07;;;;;;;15.07;7.78;;;14.00;99.90;;;;;;4995588;28;20088;-67
2022/04/24 12:08:50;;;;;;;11.73;7.40;;;14.00;99.90;;;;;;4995371;28;20042;-69
2022/04/24 12:11:32;;;;;;;16.10;7.63;;;14.10;99.90;;;;;;4995504;28;20125;-71
2022/04/24 12:14:02;;;;;;;14.70;7.72;;;14.30;99.90;;;;;;4995326;28;20038;-66
2022/04/24 12:16:28;;;;;;;15.55;6.70;;;14.40;99.90;;;;;;4995309;28;20047;-68
2022/04/24 12:18:58;;;;;;;10.93;6.65;;;14.40;99.90;;;;;;4995414;28;20073;-68
2022/04/24 12:21:24;;;;;;;9.55;6.60;;;14.30;99.90;;;;;;4994818;28;20509;-68
2022/04/24 12:23:51;;;;;;;16.00;7.75;;;14.60;99.90;;;;;;4995282;28;20049;-67
2022/04/24 12:26:17;;;;;;;10.98;7.30;;;14.40;99.90;;;;;;5011015;28;20050;-68
2022/04/24 12:28:42;;;;;;;11.85;7.97;;;14.40;99.90;;;;;;5014830;28;20042;-67
2022/04/24 12:31:19;;;;;;;14.52;7.13;;;14.50;99.90;;;;;;5014796;28;20049;-67
2022/04/24 12:33:49;;;;;;;11.73;7.13;;;14.40;99.90;;;;;;5013424;28;20080;-68
2022/04/24 12:36:15;;;;;;;10.25;6.53;;;14.50;99.90;;;;;;5014913;28;20379;-68
2022/04/24 12:39:04;;;;;;;8.93;6.50;;;14.60;99.90;;;;;;5014617;28;20133;-67
2022/04/24 12:41:31;;;;;;;10.10;6.43;;;14.80;99.90;;;;;;5014786;28;20518;-67
2022/04/24 12:44:01;;;;;;;10.63;6.88;;;15.10;99.90;;;;;;4997567;28;20058;-67
2022/04/24 12:46:28;;;;;;;9.93;6.53;;;15.20;99.90;;;;;;5014279;28;20116;-68
2022/04/24 12:48:55;;;;;;;8.63;6.10;;;15.40;99.90;;;;;;5014486;28;20440;-69